Terminal Aerodrome Forecast
Issued by NWS Cleveland, OH

Home | Current Version | Previous Version | Text Only | Print | Product List | Glossary On
Versions: 1 2 3 4 5 6 7 8 9 10 11 12 13
142
FTUS41 KCLE 131724
TAFTOL
TAF
KTOL 131724Z 1318/1418 30012KT P6SM BKN040
      TEMPO 1318/1320 5SM -SHSN
     FM140000 29008KT P6SM BKN035
     FM140800 VRB03KT P6SM SCT035=

USA.gov is the U.S. government's official web portal to all federal, state and local government web resources and services.